createdAt,value
2022-12-17T00:02:19.690Z,37.80
2022-12-17T00:07:41.813Z,39.30
2022-12-17T00:13:06.538Z,37.63
2022-12-17T00:18:28.372Z,38.60
2022-12-17T00:23:49.772Z,38.43
2022-12-17T00:29:11.106Z,35.00
2022-12-17T00:34:32.514Z,37.30
2022-12-17T00:39:59.060Z,38.10
2022-12-17T00:45:23.562Z,36.13
2022-12-17T00:50:44.730Z,38.97
2022-12-17T00:56:06.340Z,36.10
2022-12-17T01:01:28.079Z,35.57
2022-12-17T01:06:49.619Z,34.77
2022-12-17T01:12:11.104Z,36.07
2022-12-17T01:17:37.931Z,34.63
2022-12-17T01:23:02.317Z,37.37
2022-12-17T01:28:24.470Z,37.63
2022-12-17T01:33:45.651Z,38.07
2022-12-17T01:39:06.950Z,34.07
2022-12-17T01:45:02.689Z,36.20
2022-12-17T01:50:25.021Z,39.27
2022-12-17T01:55:46.828Z,36.67
2022-12-17T02:01:08.367Z,37.43
2022-12-17T02:06:46.605Z,36.27
2022-12-17T02:12:30.695Z,38.20
2022-12-17T02:17:59.970Z,37.40
2022-12-17T02:23:54.116Z,35.43
2022-12-17T02:29:21.405Z,37.03
2022-12-17T02:34:53.573Z,37.50
2022-12-17T02:40:15.749Z,40.30
2022-12-17T02:45:40.418Z,34.73
2022-12-17T02:51:05.341Z,39.03
2022-12-17T02:56:26.806Z,36.77
2022-12-17T03:01:48.363Z,36.77
2022-12-17T03:07:09.966Z,36.77
2022-12-17T03:12:31.763Z,37.13
2022-12-17T03:17:53.060Z,37.63
2022-12-17T03:23:25.052Z,37.40
2022-12-17T03:28:46.290Z,36.70
2022-12-17T03:34:07.640Z,36.63
2022-12-17T03:39:28.820Z,37.17
2022-12-17T03:44:50.167Z,36.73
2022-12-17T03:50:11.509Z,39.07
2022-12-17T03:55:32.739Z,36.43
2022-12-17T04:00:54.098Z,37.67
2022-12-17T04:06:16.010Z,36.13
2022-12-17T04:11:37.942Z,35.50
2022-12-17T04:16:59.805Z,36.17
2022-12-17T04:22:21.225Z,36.80
2022-12-17T04:27:43.000Z,35.27
2022-12-17T04:33:04.367Z,36.37
2022-12-17T04:38:25.812Z,26.00
2022-12-17T04:43:47.055Z,36.70
2022-12-17T04:49:08.405Z,35.97
2022-12-17T04:54:30.247Z,35.23
2022-12-17T04:59:51.704Z,39.07
2022-12-17T05:05:13.108Z,37.00
2022-12-17T05:10:34.625Z,38.10
2022-12-17T05:15:56.055Z,36.67
2022-12-17T05:21:18.966Z,38.23
2022-12-17T05:26:45.754Z,37.87
2022-12-17T05:32:09.074Z,38.73
2022-12-17T05:37:30.746Z,38.57
2022-12-17T05:42:52.025Z,36.60
2022-12-17T05:48:17.380Z,38.27
2022-12-17T05:53:39.265Z,37.53
2022-12-17T05:59:00.844Z,37.07
2022-12-17T06:04:22.865Z,36.87
2022-12-17T06:09:44.299Z,39.07
2022-12-17T06:15:07.610Z,36.50
2022-12-17T06:20:30.169Z,36.83
2022-12-17T06:26:02.135Z,37.57
2022-12-17T06:31:23.638Z,36.73
2022-12-17T06:36:45.121Z,37.87
2022-12-17T06:42:06.539Z,44.70
2022-12-17T06:47:29.300Z,37.10
2022-12-17T06:52:51.019Z,35.17
2022-12-17T06:58:19.014Z,37.03
2022-12-17T07:03:40.454Z,34.63
2022-12-17T07:09:01.837Z,36.60
2022-12-17T07:14:23.105Z,35.17
2022-12-17T07:19:44.432Z,33.93
2022-12-17T07:25:05.920Z,36.60
2022-12-17T07:30:27.754Z,35.93
2022-12-17T07:35:49.131Z,34.77
2022-12-17T07:41:10.851Z,36.03
2022-12-17T07:46:33.072Z,31.63
2022-12-17T07:51:54.673Z,34.10
2022-12-17T07:57:16.736Z,33.10
2022-12-17T08:02:38.515Z,35.30
2022-12-17T08:08:00.644Z,29.57
2022-12-17T08:13:24.432Z,34.10
2022-12-17T08:18:46.470Z,25.90
2022-12-17T08:24:07.794Z,34.77
2022-12-17T08:29:29.112Z,32.30
2022-12-17T08:34:50.412Z,33.70
2022-12-17T08:40:11.897Z,30.17
2022-12-17T08:45:34.050Z,34.00
2022-12-17T08:50:55.519Z,30.63
2022-12-17T08:56:19.487Z,31.43
2022-12-17T09:01:41.393Z,30.90
2022-12-17T09:07:03.261Z,32.40
2022-12-17T09:12:25.017Z,31.27
2022-12-17T09:17:46.506Z,32.50
2022-12-17T09:23:08.155Z,26.40
2022-12-17T09:28:29.754Z,29.43
2022-12-17T09:33:51.770Z,27.43
2022-12-17T09:39:13.289Z,23.60
2022-12-17T09:44:40.722Z,26.37
2022-12-17T09:50:02.458Z,25.43
2022-12-17T09:55:38.802Z,21.87
2022-12-17T10:01:01.236Z,22.10
2022-12-17T10:06:30.735Z,20.73
2022-12-17T10:11:54.118Z,22.43
2022-12-17T10:17:15.504Z,22.03
2022-12-17T10:22:39.666Z,22.90
2022-12-17T10:28:01.660Z,28.20
2022-12-17T10:33:39.311Z,25.87
2022-12-17T10:39:00.742Z,20.43
2022-12-17T10:44:37.844Z,24.57
2022-12-17T10:49:59.321Z,20.53
2022-12-17T10:55:24.212Z,19.63
2022-12-17T11:00:52.624Z,17.33
2022-12-17T11:06:14.776Z,17.67
2022-12-17T11:11:36.526Z,18.13
2022-12-17T11:17:17.108Z,15.73
2022-12-17T11:22:55.995Z,16.23
2022-12-17T11:28:42.464Z,15.07
2022-12-17T11:34:21.650Z,20.27
2022-12-17T11:39:50.565Z,17.03
2022-12-17T11:45:54.895Z,17.00
2022-12-17T11:51:34.646Z,15.77
2022-12-17T11:57:19.004Z,16.97
2022-12-17T12:02:46.591Z,15.80
2022-12-17T12:08:43.688Z,16.93
2022-12-17T12:14:41.045Z,25.50
2022-12-17T12:20:15.911Z,21.43
2022-12-17T12:25:57.467Z,16.07
2022-12-17T12:31:27.949Z,15.43
2022-12-17T12:36:51.513Z,15.00
2022-12-17T12:42:20.034Z,14.70
2022-12-17T12:48:04.183Z,15.57
2022-12-17T12:53:29.627Z,15.37
2022-12-17T12:58:53.294Z,14.70
2022-12-17T13:04:17.671Z,14.53
2022-12-17T13:09:23.443Z,15.13
2022-12-17T13:14:29.522Z,15.00
2022-12-17T13:19:32.543Z,15.00
2022-12-17T13:24:35.688Z,12.37
2022-12-17T13:29:39.083Z,16.00
2022-12-17T13:35:12.705Z,15.20
2022-12-17T13:40:49.191Z,17.07
2022-12-17T13:45:53.077Z,18.13
2022-12-17T13:51:03.265Z,17.03
2022-12-17T13:56:06.308Z,15.73
2022-12-17T14:01:12.077Z,17.33
2022-12-17T14:06:15.375Z,18.43
2022-12-17T14:11:39.184Z,17.60
2022-12-17T14:16:48.940Z,18.83
2022-12-17T14:21:54.396Z,17.93
2022-12-17T14:27:00.429Z,14.80
2022-12-17T14:32:24.223Z,14.93
2022-12-17T14:37:28.522Z,15.07
2022-12-17T14:42:35.366Z,15.97
2022-12-17T14:47:39.077Z,15.70
2022-12-17T14:52:42.087Z,15.60
2022-12-17T14:57:45.135Z,14.37
2022-12-17T15:02:54.616Z,14.00
2022-12-17T15:07:57.919Z,12.70
2022-12-17T15:13:01.229Z,12.30
2022-12-17T15:18:04.392Z,11.50
2022-12-17T15:23:11.402Z,11.33
2022-12-17T15:28:16.290Z,10.93
2022-12-17T15:33:19.342Z,11.00
2022-12-17T15:38:22.321Z,11.40
2022-12-17T15:43:25.338Z,11.47
2022-12-17T15:48:28.331Z,12.17
2022-12-17T15:53:31.446Z,12.00
2022-12-17T15:58:34.761Z,12.77
2022-12-17T16:03:38.214Z,14.00
2022-12-17T16:08:41.542Z,15.17
2022-12-17T16:13:45.038Z,13.43
2022-12-17T16:18:48.075Z,14.57
2022-12-17T16:23:51.084Z,14.13
2022-12-17T16:28:54.195Z,15.53
2022-12-17T16:33:57.189Z,13.90
2022-12-17T16:39:00.156Z,12.97
2022-12-17T16:44:03.170Z,13.33
2022-12-17T16:49:18.763Z,14.57
2022-12-17T16:54:26.073Z,14.80
2022-12-17T16:59:30.192Z,15.23
2022-12-17T17:04:34.174Z,15.20
2022-12-17T17:09:37.675Z,15.70
2022-12-17T17:14:40.642Z,14.20
2022-12-17T17:19:43.686Z,14.47
2022-12-17T17:24:46.756Z,14.23
2022-12-17T17:29:50.312Z,14.57
2022-12-17T17:34:53.725Z,12.97
2022-12-17T17:39:56.729Z,12.67
2022-12-17T17:44:59.775Z,14.13
2022-12-17T17:50:02.838Z,13.47
2022-12-17T17:55:06.346Z,14.63
2022-12-17T18:00:10.093Z,15.10
2022-12-17T18:05:13.235Z,14.20
2022-12-17T18:10:16.332Z,13.27
2022-12-17T18:15:19.365Z,14.73
2022-12-17T18:20:22.350Z,15.60
2022-12-17T18:25:25.578Z,16.67
2022-12-17T18:30:28.598Z,17.13
2022-12-17T18:35:31.692Z,17.67
2022-12-17T18:40:36.563Z,17.40
2022-12-17T18:45:39.634Z,18.10
2022-12-17T18:50:42.671Z,18.20
2022-12-17T18:55:45.739Z,19.00
2022-12-17T19:00:50.620Z,22.50
2022-12-17T19:05:54.421Z,19.37
2022-12-17T19:11:03.499Z,18.20
2022-12-17T19:16:12.792Z,18.60
2022-12-17T19:21:15.870Z,18.83
2022-12-17T19:26:21.618Z,18.40
2022-12-17T19:31:28.991Z,22.47
2022-12-17T19:36:34.902Z,23.00
2022-12-17T19:41:37.931Z,21.27
2022-12-17T19:46:41.476Z,20.37
2022-12-17T19:51:45.093Z,22.67
2022-12-17T19:56:48.113Z,22.80
2022-12-17T20:01:51.252Z,23.87
2022-12-17T20:06:55.302Z,25.83
2022-12-17T20:11:58.291Z,24.47
2022-12-17T20:17:02.849Z,24.13
2022-12-17T20:22:06.918Z,27.20
2022-12-17T20:27:11.129Z,26.10
2022-12-17T20:32:14.448Z,26.73
2022-12-17T20:37:17.587Z,27.27
2022-12-17T20:42:20.658Z,28.00
2022-12-17T20:47:23.837Z,28.97
2022-12-17T20:52:26.894Z,28.80
2022-12-17T20:57:29.938Z,29.43
2022-12-17T21:02:33.183Z,28.90
2022-12-17T21:07:36.435Z,29.40
2022-12-17T21:12:57.885Z,29.63
2022-12-17T21:18:01.030Z,29.87
2022-12-17T21:23:04.192Z,29.50
2022-12-17T21:28:07.165Z,28.83
2022-12-17T21:33:10.248Z,33.07
2022-12-17T21:38:13.348Z,30.03
2022-12-17T21:43:16.363Z,30.57
2022-12-17T21:48:19.433Z,29.93
2022-12-17T21:53:23.039Z,32.43
2022-12-17T21:58:26.393Z,27.23
2022-12-17T22:03:30.734Z,27.77
2022-12-17T22:08:33.921Z,25.07
2022-12-17T22:14:05.022Z,23.43
2022-12-17T22:19:13.199Z,23.70
2022-12-17T22:24:19.956Z,22.07
2022-12-17T22:29:41.286Z,22.87
2022-12-17T22:35:51.368Z,21.07
2022-12-17T22:44:02.295Z,20.37
2022-12-17T22:45:33.534Z,18.67
2022-12-17T22:50:38.890Z,19.37
2022-12-17T22:55:55.111Z,19.37
2022-12-17T23:01:00.701Z,19.13
2022-12-17T23:06:08.661Z,22.37
2022-12-17T23:11:14.589Z,19.13
2022-12-17T23:16:18.157Z,19.50
2022-12-17T23:21:26.016Z,17.43
2022-12-17T23:26:32.476Z,17.80
2022-12-17T23:31:40.515Z,18.27
2022-12-17T23:36:43.669Z,17.37
2022-12-17T23:41:46.682Z,17.77
2022-12-17T23:46:49.763Z,19.87
2022-12-17T23:51:52.872Z,19.67
2022-12-17T23:56:55.985Z,18.53
